sensor_id;sensor_type;location;lat;lon;timestamp;P1;durP1;ratioP1;P2;durP2;ratioP2
69244;SDS011;56357;52.304;4.870;2023-01-08T00:01:14;2.88;;;0.70;;
69244;SDS011;56357;52.304;4.870;2023-01-08T00:03:41;3.55;;;0.75;;
69244;SDS011;56357;52.304;4.870;2023-01-08T00:06:10;3.33;;;0.73;;
69244;SDS011;56357;52.304;4.870;2023-01-08T00:08:39;5.10;;;1.00;;
69244;SDS011;56357;52.304;4.870;2023-01-08T00:11:06;3.60;;;0.73;;
69244;SDS011;56357;52.304;4.870;2023-01-08T00:13:32;3.45;;;0.85;;
69244;SDS011;56357;52.304;4.870;2023-01-08T00:16:07;5.93;;;0.60;;
69244;SDS011;56357;52.304;4.870;2023-01-08T00:18:35;4.30;;;0.80;;
69244;SDS011;56357;52.304;4.870;2023-01-08T00:21:02;3.28;;;0.70;;
69244;SDS011;56357;52.304;4.870;2023-01-08T00:23:29;3.85;;;0.85;;
69244;SDS011;56357;52.304;4.870;2023-01-08T00:25:56;3.80;;;0.60;;
69244;SDS011;56357;52.304;4.870;2023-01-08T00:28:22;3.13;;;0.70;;
69244;SDS011;56357;52.304;4.870;2023-01-08T00:30:48;3.15;;;0.60;;
69244;SDS011;56357;52.304;4.870;2023-01-08T00:33:15;4.30;;;0.70;;
69244;SDS011;56357;52.304;4.870;2023-01-08T00:35:41;3.40;;;0.60;;
69244;SDS011;56357;52.304;4.870;2023-01-08T00:38:08;4.68;;;0.90;;
69244;SDS011;56357;52.304;4.870;2023-01-08T00:40:35;3.20;;;0.57;;
69244;SDS011;56357;52.304;4.870;2023-01-08T00:43:02;4.65;;;0.80;;
69244;SDS011;56357;52.304;4.870;2023-01-08T00:45:29;3.20;;;0.70;;
69244;SDS011;56357;52.304;4.870;2023-01-08T00:47:56;3.60;;;0.60;;
69244;SDS011;56357;52.304;4.870;2023-01-08T00:50:22;3.85;;;0.65;;
69244;SDS011;56357;52.304;4.870;2023-01-08T00:52:49;3.58;;;0.75;;
69244;SDS011;56357;52.304;4.870;2023-01-08T00:55:16;2.95;;;0.60;;
69244;SDS011;56357;52.304;4.870;2023-01-08T00:57:43;3.73;;;0.60;;
69244;SDS011;56357;52.304;4.870;2023-01-08T01:00:11;5.93;;;0.60;;
69244;SDS011;56357;52.304;4.870;2023-01-08T01:02:39;5.03;;;0.80;;
69244;SDS011;56357;52.304;4.870;2023-01-08T01:05:07;3.80;;;0.70;;
69244;SDS011;56357;52.304;4.870;2023-01-08T01:07:34;4.47;;;0.70;;
69244;SDS011;56357;52.304;4.870;2023-01-08T01:10:01;3.30;;;0.80;;
69244;SDS011;56357;52.304;4.870;2023-01-08T01:12:28;3.60;;;0.73;;
69244;SDS011;56357;52.304;4.870;2023-01-08T01:14:55;4.25;;;0.50;;
69244;SDS011;56357;52.304;4.870;2023-01-08T01:17:21;3.83;;;0.60;;
69244;SDS011;56357;52.304;4.870;2023-01-08T01:19:47;4.55;;;0.82;;
69244;SDS011;56357;52.304;4.870;2023-01-08T01:22:14;2.73;;;0.57;;
69244;SDS011;56357;52.304;4.870;2023-01-08T01:24:40;4.55;;;0.60;;
69244;SDS011;56357;52.304;4.870;2023-01-08T01:27:07;3.33;;;0.50;;
69244;SDS011;56357;52.304;4.870;2023-01-08T01:29:34;3.65;;;0.60;;
69244;SDS011;56357;52.304;4.870;2023-01-08T01:32:00;3.05;;;0.50;;
69244;SDS011;56357;52.304;4.870;2023-01-08T01:34:27;3.97;;;0.50;;
69244;SDS011;56357;52.304;4.870;2023-01-08T01:36:53;3.92;;;0.70;;
69244;SDS011;56357;52.304;4.870;2023-01-08T01:39:20;4.63;;;0.70;;
69244;SDS011;56357;52.304;4.870;2023-01-08T01:41:47;4.03;;;0.70;;
69244;SDS011;56357;52.304;4.870;2023-01-08T01:47:22;6.53;;;0.80;;
69244;SDS011;56357;52.304;4.870;2023-01-08T01:50:00;4.07;;;0.50;;
69244;SDS011;56357;52.304;4.870;2023-01-08T01:52:35;3.53;;;0.75;;
69244;SDS011;56357;52.304;4.870;2023-01-08T01:55:05;3.92;;;0.60;;
69244;SDS011;56357;52.304;4.870;2023-01-08T01:57:34;3.63;;;0.50;;
69244;SDS011;56357;52.304;4.870;2023-01-08T02:00:04;3.30;;;0.50;;
69244;SDS011;56357;52.304;4.870;2023-01-08T02:02:32;4.00;;;0.70;;
69244;SDS011;56357;52.304;4.870;2023-01-08T02:04:59;3.80;;;0.80;;
69244;SDS011;56357;52.304;4.870;2023-01-08T02:07:29;4.35;;;0.63;;
69244;SDS011;56357;52.304;4.870;2023-01-08T02:10:17;3.33;;;0.55;;
69244;SDS011;56357;52.304;4.870;2023-01-08T02:12:59;4.40;;;0.90;;
69244;SDS011;56357;52.304;4.870;2023-01-08T02:15:43;3.97;;;0.70;;
69244;SDS011;56357;52.304;4.870;2023-01-08T02:18:18;2.85;;;0.50;;
69244;SDS011;56357;52.304;4.870;2023-01-08T02:20:49;2.78;;;0.50;;
69244;SDS011;56357;52.304;4.870;2023-01-08T02:23:48;3.03;;;0.57;;
69244;SDS011;56357;52.304;4.870;2023-01-08T02:26:38;4.60;;;0.63;;
69244;SDS011;56357;52.304;4.870;2023-01-08T02:29:10;4.22;;;0.60;;
69244;SDS011;56357;52.304;4.870;2023-01-08T02:31:47;3.88;;;0.65;;
69244;SDS011;56357;52.304;4.870;2023-01-08T02:34:14;4.25;;;0.55;;
69244;SDS011;56357;52.304;4.870;2023-01-08T02:36:41;2.90;;;0.70;;
69244;SDS011;56357;52.304;4.870;2023-01-08T02:44:19;3.90;;;0.80;;
69244;SDS011;56357;52.304;4.870;2023-01-08T02:46:59;4.70;;;1.15;;
69244;SDS011;56357;52.304;4.870;2023-01-08T02:49:29;3.50;;;0.70;;
69244;SDS011;56357;52.304;4.870;2023-01-08T02:51:57;3.93;;;0.83;;
69244;SDS011;56357;52.304;4.870;2023-01-08T02:54:28;3.55;;;0.50;;
69244;SDS011;56357;52.304;4.870;2023-01-08T02:57:09;3.45;;;0.80;;
69244;SDS011;56357;52.304;4.870;2023-01-08T02:59:39;3.40;;;0.70;;
69244;SDS011;56357;52.304;4.870;2023-01-08T03:02:08;3.53;;;0.50;;
69244;SDS011;56357;52.304;4.870;2023-01-08T03:04:38;3.80;;;0.70;;
69244;SDS011;56357;52.304;4.870;2023-01-08T03:07:09;3.08;;;0.55;;
69244;SDS011;56357;52.304;4.870;2023-01-08T03:09:36;3.67;;;0.60;;
69244;SDS011;56357;52.304;4.870;2023-01-08T03:12:10;4.40;;;0.80;;
69244;SDS011;56357;52.304;4.870;2023-01-08T03:15:05;3.60;;;0.60;;
69244;SDS011;56357;52.304;4.870;2023-01-08T03:17:43;4.30;;;0.80;;
69244;SDS011;56357;52.304;4.870;2023-01-08T03:20:14;4.13;;;0.55;;
69244;SDS011;56357;52.304;4.870;2023-01-08T03:22:43;3.30;;;0.47;;
69244;SDS011;56357;52.304;4.870;2023-01-08T03:25:12;2.20;;;0.40;;
69244;SDS011;56357;52.304;4.870;2023-01-08T03:27:43;4.00;;;0.50;;
69244;SDS011;56357;52.304;4.870;2023-01-08T03:30:13;3.20;;;0.70;;
69244;SDS011;56357;52.304;4.870;2023-01-08T03:32:41;4.05;;;0.40;;
69244;SDS011;56357;52.304;4.870;2023-01-08T03:35:09;3.85;;;0.50;;
69244;SDS011;56357;52.304;4.870;2023-01-08T03:37:41;2.85;;;0.40;;
69244;SDS011;56357;52.304;4.870;2023-01-08T03:43:12;3.37;;;0.50;;
69244;SDS011;56357;52.304;4.870;2023-01-08T03:45:40;4.13;;;0.50;;
69244;SDS011;56357;52.304;4.870;2023-01-08T03:48:15;4.00;;;0.60;;
69244;SDS011;56357;52.304;4.870;2023-01-08T03:50:43;3.70;;;0.57;;
69244;SDS011;56357;52.304;4.870;2023-01-08T03:53:10;4.03;;;0.90;;
69244;SDS011;56357;52.304;4.870;2023-01-08T03:55:36;4.10;;;0.50;;
69244;SDS011;56357;52.304;4.870;2023-01-08T03:58:03;3.05;;;0.40;;
69244;SDS011;56357;52.304;4.870;2023-01-08T04:00:29;3.38;;;0.57;;
69244;SDS011;56357;52.304;4.870;2023-01-08T04:02:56;3.78;;;0.45;;
69244;SDS011;56357;52.304;4.870;2023-01-08T04:05:23;3.35;;;0.43;;
69244;SDS011;56357;52.304;4.870;2023-01-08T04:07:49;3.23;;;0.57;;
69244;SDS011;56357;52.304;4.870;2023-01-08T04:10:16;2.92;;;0.50;;
69244;SDS011;56357;52.304;4.870;2023-01-08T04:12:42;4.32;;;0.88;;
69244;SDS011;56357;52.304;4.870;2023-01-08T04:15:09;5.05;;;0.50;;
69244;SDS011;56357;52.304;4.870;2023-01-08T04:17:36;3.15;;;0.60;;
69244;SDS011;56357;52.304;4.870;2023-01-08T04:20:02;4.23;;;0.50;;
69244;SDS011;56357;52.304;4.870;2023-01-08T04:22:29;4.13;;;0.52;;
69244;SDS011;56357;52.304;4.870;2023-01-08T04:24:55;4.47;;;0.40;;
69244;SDS011;56357;52.304;4.870;2023-01-08T04:27:22;2.75;;;0.50;;
69244;SDS011;56357;52.304;4.870;2023-01-08T04:29:48;4.45;;;0.70;;
69244;SDS011;56357;52.304;4.870;2023-01-08T04:32:15;4.13;;;0.47;;
69244;SDS011;56357;52.304;4.870;2023-01-08T04:34:41;2.97;;;0.50;;
69244;SDS011;56357;52.304;4.870;2023-01-08T04:37:08;3.08;;;0.40;;
69244;SDS011;56357;52.304;4.870;2023-01-08T04:39:34;3.22;;;0.40;;
69244;SDS011;56357;52.304;4.870;2023-01-08T04:42:00;3.55;;;0.60;;
69244;SDS011;56357;52.304;4.870;2023-01-08T04:44:27;5.33;;;0.50;;
69244;SDS011;56357;52.304;4.870;2023-01-08T04:46:53;3.42;;;0.50;;
69244;SDS011;56357;52.304;4.870;2023-01-08T04:49:20;3.17;;;0.60;;
69244;SDS011;56357;52.304;4.870;2023-01-08T04:51:46;3.30;;;0.40;;
69244;SDS011;56357;52.304;4.870;2023-01-08T04:54:13;4.80;;;0.50;;
69244;SDS011;56357;52.304;4.870;2023-01-08T04:56:39;4.87;;;0.50;;
69244;SDS011;56357;52.304;4.870;2023-01-08T04:59:06;3.92;;;0.40;;
69244;SDS011;56357;52.304;4.870;2023-01-08T05:01:33;3.67;;;0.50;;
69244;SDS011;56357;52.304;4.870;2023-01-08T05:04:00;4.03;;;0.60;;
69244;SDS011;56357;52.304;4.870;2023-01-08T05:06:31;3.55;;;0.40;;
69244;SDS011;56357;52.304;4.870;2023-01-08T05:08:58;2.70;;;0.30;;
69244;SDS011;56357;52.304;4.870;2023-01-08T05:11:24;3.17;;;0.60;;
69244;SDS011;56357;52.304;4.870;2023-01-08T05:13:51;3.30;;;0.50;;
69244;SDS011;56357;52.304;4.870;2023-01-08T05:16:18;3.83;;;0.43;;
69244;SDS011;56357;52.304;4.870;2023-01-08T05:18:45;4.75;;;0.38;;
69244;SDS011;56357;52.304;4.870;2023-01-08T05:21:12;4.00;;;0.60;;
69244;SDS011;56357;52.304;4.870;2023-01-08T05:23:39;3.15;;;0.40;;
69244;SDS011;56357;52.304;4.870;2023-01-08T05:26:08;3.13;;;0.50;;
69244;SDS011;56357;52.304;4.870;2023-01-08T05:28:35;3.33;;;0.50;;
69244;SDS011;56357;52.304;4.870;2023-01-08T05:31:01;4.20;;;0.50;;
69244;SDS011;56357;52.304;4.870;2023-01-08T05:33:28;2.50;;;0.37;;
69244;SDS011;56357;52.304;4.870;2023-01-08T05:35:54;3.42;;;0.43;;
69244;SDS011;56357;52.304;4.870;2023-01-08T05:38:21;3.17;;;0.55;;
69244;SDS011;56357;52.304;4.870;2023-01-08T05:40:50;3.72;;;0.40;;
69244;SDS011;56357;52.304;4.870;2023-01-08T05:43:17;4.10;;;0.52;;
69244;SDS011;56357;52.304;4.870;2023-01-08T05:45:44;3.30;;;0.60;;
69244;SDS011;56357;52.304;4.870;2023-01-08T05:48:10;4.00;;;0.50;;
69244;SDS011;56357;52.304;4.870;2023-01-08T05:50:37;3.63;;;0.40;;
69244;SDS011;56357;52.304;4.870;2023-01-08T05:53:06;3.58;;;0.38;;
69244;SDS011;56357;52.304;4.870;2023-01-08T05:55:34;5.40;;;0.50;;
69244;SDS011;56357;52.304;4.870;2023-01-08T05:58:01;4.33;;;0.57;;
69244;SDS011;56357;52.304;4.870;2023-01-08T06:00:29;4.60;;;0.60;;
69244;SDS011;56357;52.304;4.870;2023-01-08T06:02:56;4.32;;;0.30;;
69244;SDS011;56357;52.304;4.870;2023-01-08T06:05:22;5.40;;;0.60;;
69244;SDS011;56357;52.304;4.870;2023-01-08T06:07:49;4.80;;;0.50;;
69244;SDS011;56357;52.304;4.870;2023-01-08T06:10:15;5.83;;;0.50;;
69244;SDS011;56357;52.304;4.870;2023-01-08T06:12:42;4.75;;;0.55;;
69244;SDS011;56357;52.304;4.870;2023-01-08T06:15:08;3.80;;;0.50;;
69244;SDS011;56357;52.304;4.870;2023-01-08T06:17:36;5.00;;;0.60;;
69244;SDS011;56357;52.304;4.870;2023-01-08T06:20:03;3.45;;;0.47;;
69244;SDS011;56357;52.304;4.870;2023-01-08T06:22:30;4.90;;;0.50;;
69244;SDS011;56357;52.304;4.870;2023-01-08T06:24:56;3.15;;;0.47;;
69244;SDS011;56357;52.304;4.870;2023-01-08T06:27:23;4.55;;;0.65;;
69244;SDS011;56357;52.304;4.870;2023-01-08T06:29:49;4.30;;;0.60;;
69244;SDS011;56357;52.304;4.870;2023-01-08T06:32:16;6.93;;;0.50;;
69244;SDS011;56357;52.304;4.870;2023-01-08T06:34:42;2.83;;;0.40;;
69244;SDS011;56357;52.304;4.870;2023-01-08T06:37:09;3.10;;;0.38;;
69244;SDS011;56357;52.304;4.870;2023-01-08T06:39:35;3.50;;;0.40;;
69244;SDS011;56357;52.304;4.870;2023-01-08T06:42:02;3.65;;;0.50;;
69244;SDS011;56357;52.304;4.870;2023-01-08T06:44:29;4.57;;;0.50;;
69244;SDS011;56357;52.304;4.870;2023-01-08T06:46:55;5.27;;;0.70;;
69244;SDS011;56357;52.304;4.870;2023-01-08T06:49:22;4.53;;;0.50;;
69244;SDS011;56357;52.304;4.870;2023-01-08T06:51:48;5.38;;;0.82;;
69244;SDS011;56357;52.304;4.870;2023-01-08T06:54:15;5.40;;;0.60;;
69244;SDS011;56357;52.304;4.870;2023-01-08T06:56:41;4.80;;;0.40;;
69244;SDS011;56357;52.304;4.870;2023-01-08T06:59:07;4.47;;;0.60;;
69244;SDS011;56357;52.304;4.870;2023-01-08T07:01:34;3.67;;;0.47;;
69244;SDS011;56357;52.304;4.870;2023-01-08T07:04:01;4.25;;;0.50;;
69244;SDS011;56357;52.304;4.870;2023-01-08T07:06:27;7.00;;;0.50;;
69244;SDS011;56357;52.304;4.870;2023-01-08T07:08:54;5.78;;;0.60;;
69244;SDS011;56357;52.304;4.870;2023-01-08T07:11:20;5.43;;;0.60;;
69244;SDS011;56357;52.304;4.870;2023-01-08T07:13:47;4.65;;;0.50;;
69244;SDS011;56357;52.304;4.870;2023-01-08T07:16:13;6.93;;;0.50;;
69244;SDS011;56357;52.304;4.870;2023-01-08T07:18:40;6.10;;;0.57;;
69244;SDS011;56357;52.304;4.870;2023-01-08T07:21:07;3.25;;;0.50;;
69244;SDS011;56357;52.304;4.870;2023-01-08T07:23:34;4.20;;;0.70;;
69244;SDS011;56357;52.304;4.870;2023-01-08T07:26:02;5.05;;;0.45;;
69244;SDS011;56357;52.304;4.870;2023-01-08T07:28:30;4.68;;;0.43;;
69244;SDS011;56357;52.304;4.870;2023-01-08T07:30:57;5.18;;;0.50;;
69244;SDS011;56357;52.304;4.870;2023-01-08T07:33:28;4.82;;;0.57;;
69244;SDS011;56357;52.304;4.870;2023-01-08T07:35:55;5.97;;;0.80;;
69244;SDS011;56357;52.304;4.870;2023-01-08T07:38:22;4.38;;;0.50;;
69244;SDS011;56357;52.304;4.870;2023-01-08T07:40:49;3.53;;;0.50;;
69244;SDS011;56357;52.304;4.870;2023-01-08T07:43:15;5.70;;;0.60;;
69244;SDS011;56357;52.304;4.870;2023-01-08T07:45:42;3.50;;;0.43;;
69244;SDS011;56357;52.304;4.870;2023-01-08T07:48:09;5.63;;;0.50;;
69244;SDS011;56357;52.304;4.870;2023-01-08T07:50:39;5.10;;;0.40;;
69244;SDS011;56357;52.304;4.870;2023-01-08T07:53:06;4.25;;;0.45;;
69244;SDS011;56357;52.304;4.870;2023-01-08T07:55:33;2.90;;;0.50;;
69244;SDS011;56357;52.304;4.870;2023-01-08T07:58:00;4.15;;;0.40;;
69244;SDS011;56357;52.304;4.870;2023-01-08T08:00:26;3.83;;;0.40;;
69244;SDS011;56357;52.304;4.870;2023-01-08T08:02:52;3.58;;;0.63;;
69244;SDS011;56357;52.304;4.870;2023-01-08T08:05:19;4.65;;;0.60;;
69244;SDS011;56357;52.304;4.870;2023-01-08T08:07:45;5.20;;;0.60;;
69244;SDS011;56357;52.304;4.870;2023-01-08T08:10:12;5.55;;;0.88;;
69244;SDS011;56357;52.304;4.870;2023-01-08T08:12:38;3.50;;;0.50;;
69244;SDS011;56357;52.304;4.870;2023-01-08T08:15:05;7.07;;;0.52;;
69244;SDS011;56357;52.304;4.870;2023-01-08T08:17:32;5.97;;;0.65;;
69244;SDS011;56357;52.304;4.870;2023-01-08T08:19:58;4.88;;;0.90;;
69244;SDS011;56357;52.304;4.870;2023-01-08T08:22:25;4.80;;;0.70;;
69244;SDS011;56357;52.304;4.870;2023-01-08T08:24:51;4.93;;;0.77;;
69244;SDS011;56357;52.304;4.870;2023-01-08T08:27:18;5.03;;;0.50;;
69244;SDS011;56357;52.304;4.870;2023-01-08T08:29:44;7.18;;;0.88;;
69244;SDS011;56357;52.304;4.870;2023-01-08T08:32:11;6.38;;;0.52;;
69244;SDS011;56357;52.304;4.870;2023-01-08T08:34:37;9.10;;;0.90;;
69244;SDS011;56357;52.304;4.870;2023-01-08T08:37:04;6.20;;;0.90;;
69244;SDS011;56357;52.304;4.870;2023-01-08T08:39:30;7.40;;;0.90;;
69244;SDS011;56357;52.304;4.870;2023-01-08T08:41:57;9.45;;;0.70;;
69244;SDS011;56357;52.304;4.870;2023-01-08T08:44:23;5.82;;;1.10;;
69244;SDS011;56357;52.304;4.870;2023-01-08T08:46:50;6.22;;;0.73;;
69244;SDS011;56357;52.304;4.870;2023-01-08T08:49:16;6.73;;;0.73;;
69244;SDS011;56357;52.304;4.870;2023-01-08T08:51:42;10.00;;;1.20;;
69244;SDS011;56357;52.304;4.870;2023-01-08T08:54:09;6.82;;;0.82;;
69244;SDS011;56357;52.304;4.870;2023-01-08T08:56:36;7.22;;;0.70;;
69244;SDS011;56357;52.304;4.870;2023-01-08T08:59:03;6.50;;;1.10;;
69244;SDS011;56357;52.304;4.870;2023-01-08T09:01:29;6.23;;;0.73;;
69244;SDS011;56357;52.304;4.870;2023-01-08T09:03:56;6.53;;;0.68;;
69244;SDS011;56357;52.304;4.870;2023-01-08T09:06:22;5.78;;;0.80;;
69244;SDS011;56357;52.304;4.870;2023-01-08T09:08:51;5.50;;;0.52;;
69244;SDS011;56357;52.304;4.870;2023-01-08T09:11:19;6.35;;;0.73;;
69244;SDS011;56357;52.304;4.870;2023-01-08T09:13:46;5.73;;;1.03;;
69244;SDS011;56357;52.304;4.870;2023-01-08T09:16:12;6.28;;;0.90;;
69244;SDS011;56357;52.304;4.870;2023-01-08T09:18:39;6.68;;;0.43;;
69244;SDS011;56357;52.304;4.870;2023-01-08T09:21:05;7.47;;;0.60;;
69244;SDS011;56357;52.304;4.870;2023-01-08T09:23:33;7.03;;;0.80;;
69244;SDS011;56357;52.304;4.870;2023-01-08T09:26:00;5.33;;;0.70;;
69244;SDS011;56357;52.304;4.870;2023-01-08T09:28:28;8.02;;;0.75;;
69244;SDS011;56357;52.304;4.870;2023-01-08T09:30:54;7.72;;;0.80;;
69244;SDS011;56357;52.304;4.870;2023-01-08T09:33:21;7.53;;;1.02;;
69244;SDS011;56357;52.304;4.870;2023-01-08T09:35:47;4.60;;;0.80;;
69244;SDS011;56357;52.304;4.870;2023-01-08T09:38:14;4.67;;;0.90;;
69244;SDS011;56357;52.304;4.870;2023-01-08T09:43:20;9.32;;;0.90;;
69244;SDS011;56357;52.304;4.870;2023-01-08T09:45:51;6.63;;;0.70;;
69244;SDS011;56357;52.304;4.870;2023-01-08T09:48:20;5.95;;;0.70;;
69244;SDS011;56357;52.304;4.870;2023-01-08T09:50:50;7.80;;;0.80;;
69244;SDS011;56357;52.304;4.870;2023-01-08T09:53:17;7.78;;;0.80;;
69244;SDS011;56357;52.304;4.870;2023-01-08T09:55:51;6.88;;;0.93;;
69244;SDS011;56357;52.304;4.870;2023-01-08T10:01:13;8.57;;;0.80;;
69244;SDS011;56357;52.304;4.870;2023-01-08T10:03:43;4.93;;;1.10;;
69244;SDS011;56357;52.304;4.870;2023-01-08T10:06:12;5.35;;;0.75;;
69244;SDS011;56357;52.304;4.870;2023-01-08T10:08:41;5.82;;;0.50;;
69244;SDS011;56357;52.304;4.870;2023-01-08T10:11:08;7.78;;;1.42;;
69244;SDS011;56357;52.304;4.870;2023-01-08T10:13:37;7.82;;;1.25;;
69244;SDS011;56357;52.304;4.870;2023-01-08T10:16:06;7.17;;;0.70;;
69244;SDS011;56357;52.304;4.870;2023-01-08T10:18:34;5.80;;;0.80;;
69244;SDS011;56357;52.304;4.870;2023-01-08T10:21:02;7.88;;;0.80;;
69244;SDS011;56357;52.304;4.870;2023-01-08T10:23:29;7.22;;;0.77;;
69244;SDS011;56357;52.304;4.870;2023-01-08T10:25:59;7.45;;;1.10;;
69244;SDS011;56357;52.304;4.870;2023-01-08T10:28:31;8.90;;;1.10;;
69244;SDS011;56357;52.304;4.870;2023-01-08T10:31:03;6.57;;;0.90;;
69244;SDS011;56357;52.304;4.870;2023-01-08T10:36:13;8.23;;;1.00;;
69244;SDS011;56357;52.304;4.870;2023-01-08T10:38:48;5.22;;;0.88;;
69244;SDS011;56357;52.304;4.870;2023-01-08T10:41:24;6.73;;;0.70;;
69244;SDS011;56357;52.304;4.870;2023-01-08T10:43:57;5.30;;;1.13;;
69244;SDS011;56357;52.304;4.870;2023-01-08T10:46:27;7.10;;;1.02;;
69244;SDS011;56357;52.304;4.870;2023-01-08T10:49:00;6.60;;;0.80;;
69244;SDS011;56357;52.304;4.870;2023-01-08T10:51:29;6.38;;;0.70;;
69244;SDS011;56357;52.304;4.870;2023-01-08T10:53:58;6.07;;;0.90;;
69244;SDS011;56357;52.304;4.870;2023-01-08T10:56:27;4.97;;;0.60;;
69244;SDS011;56357;52.304;4.870;2023-01-08T10:58:56;6.90;;;0.70;;
69244;SDS011;56357;52.304;4.870;2023-01-08T11:01:23;7.50;;;0.88;;
69244;SDS011;56357;52.304;4.870;2023-01-08T11:03:53;4.72;;;0.63;;
69244;SDS011;56357;52.304;4.870;2023-01-08T11:06:25;7.25;;;0.70;;
69244;SDS011;56357;52.304;4.870;2023-01-08T11:08:57;4.25;;;0.55;;
69244;SDS011;56357;52.304;4.870;2023-01-08T11:11:30;4.10;;;0.63;;
69244;SDS011;56357;52.304;4.870;2023-01-08T11:13:59;8.05;;;0.77;;
69244;SDS011;56357;52.304;4.870;2023-01-08T11:16:36;13.50;;;1.00;;
69244;SDS011;56357;52.304;4.870;2023-01-08T11:19:04;7.78;;;0.82;;
69244;SDS011;56357;52.304;4.870;2023-01-08T11:21:41;6.40;;;1.48;;
69244;SDS011;56357;52.304;4.870;2023-01-08T11:26:45;6.78;;;1.42;;
69244;SDS011;56357;52.304;4.870;2023-01-08T11:29:39;8.43;;;1.20;;
69244;SDS011;56357;52.304;4.870;2023-01-08T11:39:53;8.93;;;1.85;;
69244;SDS011;56357;52.304;4.870;2023-01-08T11:42:37;7.88;;;1.48;;
69244;SDS011;56357;52.304;4.870;2023-01-08T11:48:12;7.88;;;1.75;;
69244;SDS011;56357;52.304;4.870;2023-01-08T11:53:42;8.10;;;1.60;;
69244;SDS011;56357;52.304;4.870;2023-01-08T11:56:19;10.20;;;2.15;;
69244;SDS011;56357;52.304;4.870;2023-01-08T12:01:47;11.52;;;1.75;;
69244;SDS011;56357;52.304;4.870;2023-01-08T12:04:53;5.93;;;1.23;;
69244;SDS011;56357;52.304;4.870;2023-01-08T12:07:55;8.32;;;1.48;;
69244;SDS011;56357;52.304;4.870;2023-01-08T12:13:26;9.10;;;1.35;;
69244;SDS011;56357;52.304;4.870;2023-01-08T12:16:23;8.55;;;1.30;;
69244;SDS011;56357;52.304;4.870;2023-01-08T12:24:32;5.45;;;1.10;;
69244;SDS011;56357;52.304;4.870;2023-01-08T12:27:29;5.27;;;0.90;;
69244;SDS011;56357;52.304;4.870;2023-01-08T12:33:21;5.53;;;0.77;;
69244;SDS011;56357;52.304;4.870;2023-01-08T12:36:00;5.38;;;1.05;;
69244;SDS011;56357;52.304;4.870;2023-01-08T12:38:40;6.13;;;1.25;;
69244;SDS011;56357;52.304;4.870;2023-01-08T12:41:15;5.97;;;0.70;;
69244;SDS011;56357;52.304;4.870;2023-01-08T12:43:51;5.75;;;0.60;;
69244;SDS011;56357;52.304;4.870;2023-01-08T12:46:25;5.03;;;0.80;;
69244;SDS011;56357;52.304;4.870;2023-01-08T12:48:57;6.82;;;0.85;;
69244;SDS011;56357;52.304;4.870;2023-01-08T12:51:25;6.80;;;0.80;;
69244;SDS011;56357;52.304;4.870;2023-01-08T13:05:11;6.93;;;0.70;;
69244;SDS011;56357;52.304;4.870;2023-01-08T13:07:44;4.97;;;0.77;;
69244;SDS011;56357;52.304;4.870;2023-01-08T13:12:57;6.38;;;0.68;;
69244;SDS011;56357;52.304;4.870;2023-01-08T13:15:26;5.22;;;1.00;;
69244;SDS011;56357;52.304;4.870;2023-01-08T13:17:55;5.25;;;0.68;;
69244;SDS011;56357;52.304;4.870;2023-01-08T13:20:25;7.93;;;0.88;;
69244;SDS011;56357;52.304;4.870;2023-01-08T13:22:57;7.45;;;0.90;;
69244;SDS011;56357;52.304;4.870;2023-01-08T13:27:59;5.53;;;0.60;;
69244;SDS011;56357;52.304;4.870;2023-01-08T13:30:42;4.30;;;0.80;;
69244;SDS011;56357;52.304;4.870;2023-01-08T13:33:26;10.13;;;1.17;;
69244;SDS011;56357;52.304;4.870;2023-01-08T13:38:38;9.05;;;1.08;;
69244;SDS011;56357;52.304;4.870;2023-01-08T13:41:22;5.90;;;0.80;;
69244;SDS011;56357;52.304;4.870;2023-01-08T13:43:58;10.35;;;0.80;;
69244;SDS011;56357;52.304;4.870;2023-01-08T13:46:39;7.43;;;0.80;;
69244;SDS011;56357;52.304;4.870;2023-01-08T13:49:33;7.45;;;0.70;;
69244;SDS011;56357;52.304;4.870;2023-01-08T13:52:24;6.15;;;0.70;;
69244;SDS011;56357;52.304;4.870;2023-01-08T13:54:51;9.65;;;0.73;;
69244;SDS011;56357;52.304;4.870;2023-01-08T13:57:19;8.52;;;0.70;;
69244;SDS011;56357;52.304;4.870;2023-01-08T13:59:53;7.22;;;0.95;;
69244;SDS011;56357;52.304;4.870;2023-01-08T14:02:23;15.90;;;1.13;;
69244;SDS011;56357;52.304;4.870;2023-01-08T14:04:55;5.80;;;0.70;;
69244;SDS011;56357;52.304;4.870;2023-01-08T14:07:22;4.93;;;0.60;;
69244;SDS011;56357;52.304;4.870;2023-01-08T14:09:49;7.35;;;0.95;;
69244;SDS011;56357;52.304;4.870;2023-01-08T14:12:16;4.22;;;0.68;;
69244;SDS011;56357;52.304;4.870;2023-01-08T14:14:49;7.28;;;0.60;;
69244;SDS011;56357;52.304;4.870;2023-01-08T14:17:19;4.78;;;0.70;;
69244;SDS011;56357;52.304;4.870;2023-01-08T14:19:47;6.00;;;0.70;;
69244;SDS011;56357;52.304;4.870;2023-01-08T14:22:15;7.57;;;0.88;;
69244;SDS011;56357;52.304;4.870;2023-01-08T14:24:52;7.15;;;1.05;;
69244;SDS011;56357;52.304;4.870;2023-01-08T14:27:22;8.40;;;0.90;;
69244;SDS011;56357;52.304;4.870;2023-01-08T14:29:53;9.00;;;0.88;;
69244;SDS011;56357;52.304;4.870;2023-01-08T14:32:24;5.40;;;0.68;;
69244;SDS011;56357;52.304;4.870;2023-01-08T14:34:53;5.07;;;0.63;;
69244;SDS011;56357;52.304;4.870;2023-01-08T14:37:21;6.63;;;0.88;;
69244;SDS011;56357;52.304;4.870;2023-01-08T14:39:48;7.65;;;0.60;;
69244;SDS011;56357;52.304;4.870;2023-01-08T14:42:27;5.05;;;0.50;;
69244;SDS011;56357;52.304;4.870;2023-01-08T14:45:29;5.50;;;0.70;;
69244;SDS011;56357;52.304;4.870;2023-01-08T14:50:25;4.63;;;0.50;;
69244;SDS011;56357;52.304;4.870;2023-01-08T14:52:54;8.88;;;0.70;;
69244;SDS011;56357;52.304;4.870;2023-01-08T14:55:41;4.32;;;0.55;;
69244;SDS011;56357;52.304;4.870;2023-01-08T14:58:12;6.53;;;0.52;;
69244;SDS011;56357;52.304;4.870;2023-01-08T15:00:42;5.78;;;0.98;;
69244;SDS011;56357;52.304;4.870;2023-01-08T15:03:30;6.22;;;0.75;;
69244;SDS011;56357;52.304;4.870;2023-01-08T15:06:04;5.85;;;0.52;;
69244;SDS011;56357;52.304;4.870;2023-01-08T15:08:33;3.90;;;0.40;;
69244;SDS011;56357;52.304;4.870;2023-01-08T15:11:01;6.82;;;0.60;;
69244;SDS011;56357;52.304;4.870;2023-01-08T15:13:32;5.82;;;0.60;;
69244;SDS011;56357;52.304;4.870;2023-01-08T15:16:06;5.53;;;0.68;;
69244;SDS011;56357;52.304;4.870;2023-01-08T15:18:38;6.10;;;0.68;;
69244;SDS011;56357;52.304;4.870;2023-01-08T15:21:08;5.43;;;0.73;;
69244;SDS011;56357;52.304;4.870;2023-01-08T15:23:39;6.40;;;0.90;;
69244;SDS011;56357;52.304;4.870;2023-01-08T15:26:12;4.57;;;0.90;;
69244;SDS011;56357;52.304;4.870;2023-01-08T15:33:58;5.82;;;0.68;;
69244;SDS011;56357;52.304;4.870;2023-01-08T15:36:25;7.97;;;0.73;;
69244;SDS011;56357;52.304;4.870;2023-01-08T15:38:52;5.13;;;1.20;;
69244;SDS011;56357;52.304;4.870;2023-01-08T15:41:19;4.53;;;0.60;;
69244;SDS011;56357;52.304;4.870;2023-01-08T15:44:01;4.22;;;0.40;;
69244;SDS011;56357;52.304;4.870;2023-01-08T15:46:28;4.93;;;0.65;;
69244;SDS011;56357;52.304;4.870;2023-01-08T15:48:54;5.97;;;0.82;;
69244;SDS011;56357;52.304;4.870;2023-01-08T15:51:25;4.20;;;0.63;;
69244;SDS011;56357;52.304;4.870;2023-01-08T15:53:55;5.57;;;0.88;;
69244;SDS011;56357;52.304;4.870;2023-01-08T15:56:21;3.83;;;0.60;;
69244;SDS011;56357;52.304;4.870;2023-01-08T15:58:48;6.22;;;0.77;;
69244;SDS011;56357;52.304;4.870;2023-01-08T16:01:14;7.63;;;0.70;;
69244;SDS011;56357;52.304;4.870;2023-01-08T16:03:40;6.78;;;0.75;;
69244;SDS011;56357;52.304;4.870;2023-01-08T16:06:07;7.93;;;0.60;;
69244;SDS011;56357;52.304;4.870;2023-01-08T16:08:34;7.82;;;0.88;;
69244;SDS011;56357;52.304;4.870;2023-01-08T16:11:00;8.40;;;1.45;;
69244;SDS011;56357;52.304;4.870;2023-01-08T16:13:27;7.40;;;0.95;;
69244;SDS011;56357;52.304;4.870;2023-01-08T16:15:53;10.50;;;1.00;;
69244;SDS011;56357;52.304;4.870;2023-01-08T16:18:20;6.57;;;1.00;;
69244;SDS011;56357;52.304;4.870;2023-01-08T16:20:46;5.07;;;0.93;;